createdAt,value
2022-07-30T00:01:52.307Z,5.43
2022-07-30T00:04:42.500Z,5.20
2022-07-30T00:07:24.319Z,6.22
2022-07-30T00:10:13.499Z,5.65
2022-07-30T00:12:55.320Z,6.07
2022-07-30T00:15:43.457Z,5.75
2022-07-30T00:18:31.345Z,5.93
2022-07-30T00:21:20.319Z,6.00
2022-07-30T00:24:29.415Z,5.97
2022-07-30T00:27:17.572Z,6.07
2022-07-30T00:30:06.325Z,5.95
2022-07-30T00:32:54.493Z,6.32
2022-07-30T00:35:43.341Z,5.97
2022-07-30T00:38:40.385Z,6.30
2022-07-30T00:41:35.417Z,6.90
2022-07-30T00:44:23.638Z,6.40
2022-07-30T00:47:06.353Z,6.95
2022-07-30T00:49:55.539Z,6.93
2022-07-30T00:52:37.322Z,7.00
2022-07-30T00:55:27.616Z,7.35
2022-07-30T00:58:09.363Z,7.20
2022-07-30T01:00:57.581Z,8.70
2022-07-30T01:03:50.917Z,7.95
2022-07-30T01:06:55.621Z,7.40
2022-07-30T01:09:44.495Z,8.30
2022-07-30T01:12:34.341Z,7.38
2022-07-30T01:15:22.534Z,8.85
2022-07-30T01:18:07.354Z,8.85
2022-07-30T01:21:02.651Z,8.07
2022-07-30T01:23:49.351Z,8.20
2022-07-30T01:26:40.487Z,8.38
2022-07-30T01:29:31.381Z,8.63
2022-07-30T01:32:21.354Z,7.95
2022-07-30T01:35:05.594Z,7.78
2022-07-30T01:38:02.350Z,8.10
2022-07-30T01:40:52.777Z,8.05
2022-07-30T01:43:38.364Z,8.60
2022-07-30T01:46:30.602Z,8.68
2022-07-30T01:49:19.420Z,9.15
2022-07-30T01:52:09.842Z,8.75
2022-07-30T01:55:00.437Z,9.68
2022-07-30T01:57:48.604Z,9.48
2022-07-30T02:00:40.414Z,9.35
2022-07-30T02:03:29.579Z,9.50
2022-07-30T02:06:22.388Z,9.50
2022-07-30T02:09:13.689Z,9.87
2022-07-30T02:12:16.457Z,10.13
2022-07-30T02:15:12.533Z,10.30
2022-07-30T02:18:02.450Z,10.27
2022-07-30T02:20:54.192Z,9.95
2022-07-30T02:23:41.382Z,9.93
2022-07-30T02:26:31.562Z,9.90
2022-07-30T02:29:23.385Z,9.82
2022-07-30T02:32:16.579Z,9.95
2022-07-30T02:35:11.388Z,10.35
2022-07-30T02:38:09.362Z,9.80
2022-07-30T02:40:57.683Z,9.27
2022-07-30T02:43:40.385Z,9.57
2022-07-30T02:46:32.657Z,9.25
2022-07-30T02:49:40.376Z,9.18
2022-07-30T02:52:30.592Z,9.30
2022-07-30T02:55:20.468Z,9.50
2022-07-30T02:58:11.652Z,8.98
2022-07-30T03:01:01.457Z,9.85
2022-07-30T03:03:52.788Z,9.25
2022-07-30T03:06:42.399Z,9.65
2022-07-30T03:09:51.937Z,9.65
2022-07-30T03:12:36.453Z,9.15
2022-07-30T03:15:26.878Z,9.57
2022-07-30T03:18:09.409Z,10.10
2022-07-30T03:21:06.463Z,10.25
2022-07-30T03:23:55.624Z,10.50
2022-07-30T03:26:46.420Z,10.60
2022-07-30T03:29:36.623Z,11.00
2022-07-30T03:32:26.261Z,10.77
2022-07-30T03:35:17.229Z,10.85
2022-07-30T03:38:14.410Z,10.85
2022-07-30T03:41:03.987Z,10.80
2022-07-30T03:43:48.398Z,11.90
2022-07-30T03:46:39.658Z,11.52
2022-07-30T03:49:28.391Z,10.82
2022-07-30T03:52:17.665Z,10.48
2022-07-30T03:55:06.399Z,10.68
2022-07-30T03:57:57.378Z,10.52
2022-07-30T04:00:49.430Z,10.50
2022-07-30T04:03:39.715Z,11.10
2022-07-30T04:06:28.442Z,10.30
2022-07-30T04:09:17.634Z,11.77
2022-07-30T04:11:59.542Z,12.50
2022-07-30T04:14:49.643Z,11.65
2022-07-30T04:17:36.475Z,11.73
2022-07-30T04:20:29.666Z,11.13
2022-07-30T04:25:59.788Z,12.70
2022-07-30T04:28:42.416Z,12.50
2022-07-30T04:31:30.608Z,14.52
2022-07-30T04:34:33.427Z,14.48
2022-07-30T04:37:30.445Z,16.15
2022-07-30T04:40:26.536Z,15.55
2022-07-30T04:43:14.642Z,16.83
2022-07-30T04:46:03.519Z,16.48
2022-07-30T04:48:48.149Z,16.95
2022-07-30T04:51:42.441Z,15.40
2022-07-30T04:54:33.576Z,15.77
2022-07-30T04:57:23.448Z,14.98
2022-07-30T05:00:05.650Z,14.07
2022-07-30T05:02:58.496Z,12.82
2022-07-30T05:05:41.720Z,13.35
2022-07-30T05:08:31.444Z,13.35
2022-07-30T05:11:19.647Z,12.27
2022-07-30T05:14:14.517Z,11.63
2022-07-30T05:17:03.091Z,10.82
2022-07-30T05:19:52.509Z,10.82
2022-07-30T05:22:42.829Z,10.30
2022-07-30T05:25:41.538Z,11.60
2022-07-30T05:28:32.672Z,10.00
2022-07-30T05:31:23.562Z,11.63
2022-07-30T05:34:15.563Z,10.98
2022-07-30T05:36:57.820Z,11.10
2022-07-30T05:40:02.233Z,11.30
2022-07-30T05:43:18.450Z,10.52
2022-07-30T05:46:06.644Z,11.30
2022-07-30T05:48:48.531Z,10.23
2022-07-30T05:51:36.595Z,9.98
2022-07-30T05:54:25.517Z,10.25
2022-07-30T05:57:35.786Z,9.57
2022-07-30T06:00:26.512Z,9.57
2022-07-30T06:03:14.585Z,9.00
2022-07-30T06:06:23.289Z,8.23
2022-07-30T06:09:11.678Z,8.35
2022-07-30T06:11:54.483Z,7.63
2022-07-30T06:14:46.715Z,7.75
2022-07-30T06:17:41.370Z,7.03
2022-07-30T06:20:36.713Z,7.28
2022-07-30T06:23:33.464Z,6.00
2022-07-30T06:26:27.594Z,5.90
2022-07-30T06:29:17.483Z,6.28
2022-07-30T06:32:05.700Z,4.75
2022-07-30T06:35:04.019Z,5.68
2022-07-30T06:38:07.193Z,5.95
2022-07-30T06:41:19.480Z,5.65
2022-07-30T06:44:12.660Z,4.75
2022-07-30T06:47:14.526Z,4.57
2022-07-30T06:50:04.873Z,3.40
2022-07-30T06:52:46.497Z,3.85
2022-07-30T06:55:34.632Z,3.90
2022-07-30T06:58:16.516Z,3.40
2022-07-30T07:01:36.787Z,3.33
2022-07-30T07:04:26.564Z,3.10
2022-07-30T07:07:31.505Z,3.78
2022-07-30T07:10:27.541Z,2.80
2022-07-30T07:13:20.366Z,2.40
2022-07-30T07:16:09.522Z,2.25
2022-07-30T07:19:02.702Z,2.80
2022-07-30T07:21:44.610Z,2.28
2022-07-30T07:24:34.675Z,1.88
2022-07-30T07:27:22.564Z,2.33
2022-07-30T07:30:14.720Z,2.20
2022-07-30T07:32:56.602Z,2.60
2022-07-30T07:35:48.835Z,2.40
2022-07-30T07:38:46.516Z,2.58
2022-07-30T07:41:29.895Z,2.40
2022-07-30T07:44:53.583Z,2.17
2022-07-30T07:47:53.069Z,2.40
2022-07-30T07:51:02.487Z,2.65
2022-07-30T07:54:11.746Z,1.95
2022-07-30T07:57:04.276Z,2.63
2022-07-30T08:00:02.580Z,3.10
2022-07-30T08:02:54.785Z,2.40
2022-07-30T08:05:56.939Z,1.70
2022-07-30T08:09:09.883Z,2.03
2022-07-30T08:12:16.666Z,2.30
2022-07-30T08:15:22.715Z,2.42
2022-07-30T08:18:06.512Z,2.35
2022-07-30T08:21:15.420Z,2.15
2022-07-30T08:23:58.563Z,1.70
2022-07-30T08:26:46.677Z,1.58
2022-07-30T08:29:36.533Z,1.40
2022-07-30T08:32:24.714Z,1.60
2022-07-30T08:35:14.635Z,1.50
2022-07-30T08:38:09.533Z,1.50
2022-07-30T08:41:05.577Z,1.70
2022-07-30T08:43:57.811Z,1.27
2022-07-30T08:46:49.536Z,1.52
2022-07-30T08:50:01.539Z,1.70
2022-07-30T08:52:48.549Z,1.70
2022-07-30T08:55:36.664Z,1.92
2022-07-30T08:58:36.552Z,2.05
2022-07-30T09:01:24.678Z,3.42
2022-07-30T09:04:14.593Z,5.22
2022-07-30T09:07:02.994Z,3.28
2022-07-30T09:09:52.555Z,1.85
2022-07-30T09:12:44.747Z,1.77
2022-07-30T09:15:35.609Z,2.20
2022-07-30T09:18:34.752Z,1.95
2022-07-30T09:21:31.569Z,2.40
2022-07-30T09:24:56.543Z,1.80
2022-07-30T09:27:58.371Z,1.50
2022-07-30T09:31:16.739Z,2.05
2022-07-30T09:34:38.731Z,1.85
2022-07-30T09:38:07.551Z,1.92
2022-07-30T09:41:17.253Z,2.15
2022-07-30T09:44:24.552Z,1.92
2022-07-30T09:47:19.558Z,2.22
2022-07-30T09:50:13.697Z,1.88
2022-07-30T09:53:17.571Z,1.60
2022-07-30T09:56:06.828Z,1.50
2022-07-30T09:58:49.565Z,2.03
2022-07-30T10:02:00.810Z,2.20
2022-07-30T10:05:22.572Z,1.85
2022-07-30T10:08:08.180Z,2.00
2022-07-30T10:11:08.690Z,1.90
2022-07-30T10:14:01.880Z,2.28
2022-07-30T10:16:43.957Z,1.90
2022-07-30T10:19:40.141Z,2.17
2022-07-30T10:22:42.681Z,1.90
2022-07-30T10:25:55.316Z,2.10
2022-07-30T10:28:58.637Z,2.10
2022-07-30T10:31:48.281Z,22.35
2022-07-30T10:34:46.589Z,11.05
2022-07-30T10:37:36.731Z,2.03
2022-07-30T10:40:40.592Z,2.08
2022-07-30T10:43:52.614Z,2.35
2022-07-30T10:46:47.856Z,2.35
2022-07-30T10:49:43.628Z,2.30
2022-07-30T10:52:53.807Z,2.33
2022-07-30T10:55:45.573Z,2.20
2022-07-30T10:58:33.763Z,2.13
2022-07-30T11:01:23.601Z,2.10
2022-07-30T11:04:29.655Z,2.10
2022-07-30T11:07:39.606Z,1.92
2022-07-30T11:10:43.835Z,2.35
2022-07-30T11:13:25.627Z,2.15
2022-07-30T11:16:15.317Z,1.98
2022-07-30T11:19:56.747Z,1.90
2022-07-30T11:22:44.692Z,1.95
2022-07-30T11:25:54.955Z,2.10
2022-07-30T11:28:57.605Z,2.22
2022-07-30T11:31:56.792Z,2.30
2022-07-30T11:34:56.700Z,2.40
2022-07-30T11:38:11.609Z,2.00
2022-07-30T11:41:24.603Z,2.58
2022-07-30T11:44:45.615Z,3.20
2022-07-30T11:47:35.837Z,6.15
2022-07-30T11:50:32.692Z,3.13
2022-07-30T11:53:25.854Z,2.28
2022-07-30T11:56:16.672Z,2.67
2022-07-30T11:59:19.643Z,2.00
2022-07-30T12:02:07.849Z,2.42
2022-07-30T12:04:58.687Z,2.78
2022-07-30T12:07:46.804Z,1.98
2022-07-30T12:10:36.660Z,2.33
2022-07-30T12:13:44.395Z,2.60
2022-07-30T12:16:32.710Z,2.00
2022-07-30T12:19:20.936Z,2.20
2022-07-30T12:22:07.643Z,1.90
2022-07-30T12:24:55.959Z,1.75
2022-07-30T12:27:38.630Z,1.92
2022-07-30T12:33:09.638Z,2.20
2022-07-30T12:35:59.838Z,2.33
2022-07-30T12:39:00.661Z,34.13
2022-07-30T12:41:49.835Z,2.92
2022-07-30T12:44:55.642Z,9.38
2022-07-30T12:47:43.756Z,1.50
2022-07-30T12:50:34.633Z,1.60
2022-07-30T12:53:23.801Z,2.00
2022-07-30T12:56:25.652Z,1.88
2022-07-30T12:59:28.881Z,1.88
2022-07-30T13:02:11.711Z,2.45
2022-07-30T13:05:11.274Z,1.77
2022-07-30T13:08:03.663Z,1.52
2022-07-30T13:11:12.664Z,1.75
2022-07-30T13:14:01.993Z,5.25
2022-07-30T13:16:44.669Z,2.05
2022-07-30T13:19:34.948Z,1.13
2022-07-30T13:22:16.717Z,1.50
2022-07-30T13:25:04.792Z,1.58
2022-07-30T13:27:46.678Z,1.65
2022-07-30T13:30:34.869Z,1.70
2022-07-30T13:33:16.694Z,1.40
2022-07-30T13:36:07.089Z,3.03
2022-07-30T13:38:55.679Z,2.30
2022-07-30T13:41:37.094Z,2.22
2022-07-30T13:44:32.671Z,1.58
2022-07-30T13:47:20.920Z,2.08
2022-07-30T13:50:09.667Z,4.00
2022-07-30T13:53:02.697Z,2.95
2022-07-30T13:55:53.729Z,2.00
2022-07-30T13:58:42.173Z,1.60
2022-07-30T14:01:30.802Z,1.55
2022-07-30T14:04:18.891Z,2.10
2022-07-30T14:07:01.148Z,1.90
2022-07-30T14:09:54.340Z,1.70
2022-07-30T14:12:36.703Z,1.83
2022-07-30T14:15:26.089Z,1.65
2022-07-30T14:18:14.702Z,1.60
2022-07-30T14:20:55.939Z,1.70
2022-07-30T14:23:43.685Z,11.25
2022-07-30T14:26:30.227Z,3.20
2022-07-30T14:29:30.705Z,1.50
2022-07-30T14:32:20.000Z,1.55
2022-07-30T14:35:11.731Z,1.65
2022-07-30T14:37:59.864Z,1.60
2022-07-30T14:40:55.668Z,1.67
2022-07-30T14:43:45.883Z,1.52
2022-07-30T14:46:34.698Z,1.20
2022-07-30T14:49:24.118Z,1.50
2022-07-30T14:52:05.792Z,1.55
2022-07-30T14:54:53.905Z,1.48
2022-07-30T14:57:35.750Z,1.10
2022-07-30T15:00:25.831Z,1.85
2022-07-30T15:03:07.712Z,1.50
2022-07-30T15:05:55.939Z,1.55
2022-07-30T15:08:37.698Z,1.40
2022-07-30T15:11:25.917Z,1.90
2022-07-30T15:14:14.869Z,1.20
2022-07-30T15:17:06.009Z,1.40
2022-07-30T15:19:54.771Z,2.35
2022-07-30T15:22:42.935Z,7.35
2022-07-30T15:25:31.692Z,1.63
2022-07-30T15:28:20.496Z,1.70
2022-07-30T15:31:08.708Z,1.50
2022-07-30T15:33:58.910Z,2.05
2022-07-30T15:36:40.757Z,1.83
2022-07-30T15:39:35.760Z,7.55
2022-07-30T15:42:23.729Z,1.48
2022-07-30T15:45:21.377Z,1.83
2022-07-30T15:48:10.736Z,1.60
2022-07-30T15:50:53.930Z,1.52
2022-07-30T15:53:42.735Z,1.25
2022-07-30T15:56:26.478Z,2.15
2022-07-30T15:59:20.750Z,1.30
2022-07-30T16:02:08.962Z,1.65
2022-07-30T16:04:57.777Z,14.60
2022-07-30T16:07:47.854Z,1.60
2022-07-30T16:10:36.782Z,1.50
2022-07-30T16:13:28.924Z,1.80
2022-07-30T16:16:17.802Z,4.78
2022-07-30T16:19:06.007Z,3.05
2022-07-30T16:21:47.832Z,1.63
2022-07-30T16:24:38.022Z,3.03
2022-07-30T16:27:19.746Z,1.85
2022-07-30T16:30:07.889Z,1.55
2022-07-30T16:32:49.749Z,1.63
2022-07-30T16:35:49.214Z,1.50
2022-07-30T16:38:38.815Z,2.85
2022-07-30T16:41:35.795Z,3.63
2022-07-30T16:44:30.842Z,5.30
2022-07-30T16:47:18.873Z,1.65
2022-07-30T16:50:07.759Z,1.67
2022-07-30T16:52:56.022Z,1.85
2022-07-30T16:55:44.803Z,2.50
2022-07-30T16:59:24.201Z,2.65
2022-07-30T17:02:15.791Z,1.77
2022-07-30T17:10:00.996Z,6.80
2022-07-30T17:16:23.991Z,1.40
2022-07-30T17:22:43.169Z,2.22
2022-07-30T17:25:59.923Z,2.05
2022-07-30T17:28:46.758Z,1.67
2022-07-30T17:31:39.722Z,1.83
2022-07-30T17:34:52.858Z,1.90
2022-07-30T17:38:28.728Z,2.47
2022-07-30T17:41:59.022Z,1.70
2022-07-30T17:45:48.822Z,1.65
2022-07-30T17:48:58.050Z,1.90
2022-07-30T17:51:48.795Z,1.95
2022-07-30T17:54:30.988Z,2.38
2022-07-30T17:57:41.860Z,1.92
2022-07-30T18:00:26.020Z,2.47
2022-07-30T18:03:14.799Z,2.53
2022-07-30T18:06:00.070Z,1.83
2022-07-30T18:08:49.820Z,1.77
2022-07-30T18:11:32.931Z,3.90
2022-07-30T18:14:30.804Z,3.08
2022-07-30T18:17:48.822Z,2.30
2022-07-30T18:20:33.148Z,2.40
2022-07-30T18:23:34.977Z,1.45
2022-07-30T18:26:22.704Z,1.85
2022-07-30T18:29:26.817Z,1.90
2022-07-30T18:32:18.168Z,1.92
2022-07-30T18:35:12.046Z,2.00
2022-07-30T18:38:07.070Z,1.60
2022-07-30T18:41:09.888Z,11.75
2022-07-30T18:43:58.024Z,4.75
2022-07-30T18:46:46.859Z,2.00
2022-07-30T18:49:41.967Z,1.75
2022-07-30T18:52:30.059Z,2.05
2022-07-30T18:55:19.847Z,1.80
2022-07-30T18:58:09.989Z,2.20
2022-07-30T19:00:58.943Z,1.80
2022-07-30T19:03:46.965Z,2.08
2022-07-30T19:06:35.813Z,1.77
2022-07-30T19:09:24.026Z,2.08
2022-07-30T19:12:06.179Z,2.95
2022-07-30T19:14:56.025Z,2.42
2022-07-30T19:17:45.972Z,2.10
2022-07-30T19:20:34.983Z,2.30
2022-07-30T19:23:16.936Z,2.33
2022-07-30T19:26:05.887Z,2.25
2022-07-30T19:28:47.834Z,6.20
2022-07-30T19:31:38.208Z,1.73
2022-07-30T19:34:26.867Z,2.33
2022-07-30T19:37:15.103Z,3.28
2022-07-30T19:40:09.968Z,2.20
2022-07-30T19:43:09.308Z,2.00
2022-07-30T19:45:58.534Z,1.77
2022-07-30T19:48:50.588Z,1.60
2022-07-30T19:52:10.071Z,1.90
2022-07-30T19:55:41.911Z,1.50
2022-07-30T19:58:52.414Z,1.60
2022-07-30T20:01:41.916Z,1.90
2022-07-30T20:04:34.104Z,2.05
2022-07-30T20:07:16.849Z,1.80
2022-07-30T20:10:06.024Z,1.60
2022-07-30T20:12:57.900Z,2.45
2022-07-30T20:16:00.557Z,5.28
2022-07-30T20:18:52.170Z,1.75
2022-07-30T20:21:56.340Z,1.67
2022-07-30T20:24:56.017Z,1.73
2022-07-30T20:27:46.287Z,1.80
2022-07-30T20:30:37.881Z,1.92
2022-07-30T20:33:36.083Z,1.58
2022-07-30T20:36:28.868Z,5.07
2022-07-30T20:39:25.931Z,1.85
2022-07-30T20:42:18.886Z,1.65
2022-07-30T20:45:03.203Z,1.48
2022-07-30T20:47:52.910Z,1.40
2022-07-30T20:50:34.156Z,1.65
2022-07-30T20:53:22.931Z,1.70
2022-07-30T20:56:06.213Z,1.70
2022-07-30T20:58:57.993Z,1.60
2022-07-30T21:01:49.177Z,1.70
2022-07-30T21:05:00.910Z,1.58
2022-07-30T21:07:52.886Z,1.65
2022-07-30T21:10:48.956Z,2.20
2022-07-30T21:13:41.448Z,1.33
2022-07-30T21:16:26.836Z,2.67
2022-07-30T21:19:56.963Z,1.58
2022-07-30T21:22:46.105Z,1.63
2022-07-30T21:26:00.735Z,1.70
2022-07-30T21:28:49.116Z,2.20
2022-07-30T21:32:01.343Z,1.70
2022-07-30T21:34:47.097Z,1.58
2022-07-30T21:37:36.629Z,1.67
2022-07-30T21:40:33.962Z,1.70
2022-07-30T21:43:29.707Z,2.97
2022-07-30T21:46:41.821Z,1.90
2022-07-30T21:49:37.967Z,1.73
2022-07-30T21:52:26.001Z,1.90
2022-07-30T21:55:21.976Z,1.45
2022-07-30T21:58:10.121Z,3.35
2022-07-30T22:01:18.883Z,1.70
2022-07-30T22:04:09.303Z,1.55
2022-07-30T22:06:50.884Z,1.48
2022-07-30T22:09:43.050Z,1.52
2022-07-30T22:12:28.813Z,1.95
2022-07-30T22:15:18.132Z,1.60
2022-07-30T22:18:06.987Z,8.90
2022-07-30T22:20:50.117Z,4.00
2022-07-30T22:23:38.945Z,21.10
2022-07-30T22:26:21.174Z,1.80
2022-07-30T22:29:15.938Z,3.72
2022-07-30T22:32:06.234Z,1.92
2022-07-30T22:34:55.903Z,1.50
2022-07-30T22:37:47.046Z,1.45
2022-07-30T22:40:36.910Z,2.83
2022-07-30T22:43:33.277Z,1.55
2022-07-30T22:46:30.961Z,1.30
2022-07-30T22:49:24.370Z,1.45
2022-07-30T22:52:25.870Z,1.60
2022-07-30T22:55:22.022Z,1.52
2022-07-30T22:58:03.998Z,1.95
2022-07-30T23:00:52.091Z,1.50
2022-07-30T23:03:33.934Z,1.67
2022-07-30T23:06:22.149Z,1.65
2022-07-30T23:09:17.030Z,2.13
2022-07-30T23:12:09.145Z,1.48
2022-07-30T23:14:56.908Z,1.70
2022-07-30T23:17:46.083Z,1.60
2022-07-30T23:20:35.028Z,3.47
2022-07-30T23:23:23.194Z,5.50
2022-07-30T23:26:10.935Z,3.58
2022-07-30T23:29:00.963Z,2.10
2022-07-30T23:31:42.279Z,1.70
2022-07-30T23:34:36.950Z,2.25
2022-07-30T23:37:25.193Z,1.65
2022-07-30T23:40:21.973Z,1.55
2022-07-30T23:43:11.118Z,2.28
2022-07-30T23:46:02.028Z,2.50
2022-07-30T23:48:50.146Z,2.40
2022-07-30T23:51:44.980Z,2.70
2022-07-30T23:54:33.239Z,1.40
2022-07-30T23:57:14.978Z,1.60
